Fleurtje — PJCU — position and weather

sailwx.info

Track history (hours):
 
Tides and Currents Weather Stations Pressure Air Temp Water Temp Dewpoint Dewpoint Depression Visibility Wind Speed Wind Dir Waves Ship Positions

Fleurtje

187 foot 3-masted schooner.

Last reported at 2019-Jun-01 22:14 UTC. Time now 2019-Jun-15 23:24 UTC.
Position N 21°31' E 113°45'.
Warning: this ship's position is 14 days out of date.

Length 217 m; draft 10.5 m.

Type: Cargo ship. MMSI: 306129000.

Date/timePositionNaut miles runAvg speedWind from/ knotsBaromVisibWave heightAir tempDewpointWater temp
2019-Jun-01 22:14N 21°31' E 113°45'0 0.0
2019-Jun-01 21:50N 21°31' E 113°45'0 0.0
2019-Jun-01 21:02N 21°31' E 113°45'0 0.1
2019-Jun-01 20:56N 21°31' E 113°45'  
2019-May-27 04:10N 01°15' E 104°08'212.4
2019-May-27 04:00N 01°15' E 104°06'612.8
2019-May-27 03:30N 01°14' E 103°60'612.6
2019-May-27 03:00N 01°12' E 103°54'713.2
2019-May-27 02:30N 01°10' E 103°48'2 3.8
2019-May-27 02:00N 01°11' E 103°46'0 0.2
2019-May-27 01:29N 01°11' E 103°46'0 0.0
2019-May-27 00:59N 01°11' E 103°46'0 0.0
2019-May-27 00:23N 01°11' E 103°46'0 0.0
2019-May-26 23:56N 01°11' E 103°46'0 0.0
2019-May-26 23:29N 01°11' E 103°46'0 0.0
2019-May-26 22:47N 01°11' E 103°46'0 0.1
2019-May-26 22:29N 01°11' E 103°46'0 0.3
2019-May-26 21:59N 01°11' E 103°46'0 0.1
2019-May-26 21:26N 01°11' E 103°46'0 0.0
2019-May-26 20:59N 01°11' E 103°46'0 0.2
2019-May-26 20:23N 01°11' E 103°46'0 0.1
2019-May-26 19:59N 01°11' E 103°46'0 0.0
2019-May-26 19:29N 01°11' E 103°46'0 0.0
2019-May-26 18:59N 01°11' E 103°46'0 0.0
2019-May-26 18:29N 01°11' E 103°46'0 0.0
2019-May-26 17:59N 01°11' E 103°46'0 0.0
2019-May-26 17:29N 01°11' E 103°46'0 0.0
2019-May-26 16:59N 01°11' E 103°46'0 0.0
2019-May-26 16:29N 01°11' E 103°46'0 0.0
2019-May-26 15:59N 01°11' E 103°46'0 0.0
2019-May-26 15:29N 01°11' E 103°46'0 0.0
2019-May-26 14:56N 01°11' E 103°46'0 0.0
2019-May-26 14:29N 01°11' E 103°46'0 0.0
2019-May-26 13:59N 01°11' E 103°46'0 0.0
2019-May-26 13:29N 01°11' E 103°46'0 0.0
2019-May-26 12:59N 01°11' E 103°46'0 0.0
2019-May-26 12:29N 01°11' E 103°46'0 0.0
2019-May-26 11:59N 01°11' E 103°46'0 0.0
2019-May-26 11:29N 01°11' E 103°46'0 0.0
2019-May-26 10:59N 01°11' E 103°46'0 0.1
2019-May-26 10:29N 01°11' E 103°46'0 0.0
2019-May-26 09:59N 01°11' E 103°46'0 0.0
2019-May-26 09:29N 01°11' E 103°46'0 0.0
2019-May-26 08:59N 01°11' E 103°46'0 0.0
2019-May-26 08:29N 01°11' E 103°46'0 0.0
2019-May-26 07:59N 01°11' E 103°46'0 0.1
2019-May-26 07:29N 01°11' E 103°46'0 0.2
2019-May-26 06:59N 01°11' E 103°46'0 0.2
2019-May-26 06:29N 01°11' E 103°46'0 0.1
2019-May-26 05:59N 01°11' E 103°46'0 0.2
2019-May-26 05:29N 01°11' E 103°46'0 0.1
2019-May-26 04:56N 01°11' E 103°46'0 0.0
2019-May-26 04:29N 01°11' E 103°46'0 0.0
2019-May-26 03:59N 01°11' E 103°46'0 0.0
2019-May-26 03:29N 01°11' E 103°46'0 0.2
2019-May-26 02:59N 01°11' E 103°46'1 1.1
2019-May-26 02:00N 01°10' E 103°46'4 8.1
2019-May-26 01:30N 01°10' E 103°42'5 9.4
2019-May-26 00:59N 01°12' E 103°38'2 4.7
2019-May-26 00:30N 01°13' E 103°36'5 7.3
2019-May-25 23:51N 01°12' E 103°31'3 9.2
2019-May-25 23:29N 01°11' E 103°28'810.1
2019-May-25 22:42N 01°15' E 103°21'  
Track history (hours):
 
Tides and Currents Weather Stations Pressure Air Temp Water Temp Dewpoint Dewpoint Depression Visibility Wind Speed Wind Dir Waves Ship Positions

Fleurtje

187 foot 3-masted schooner.

Last reported at 2019-Jun-01 22:14 UTC. Time now 2019-Jun-15 23:24 UTC.
Position N 21°31' E 113°45'.
Warning: this ship's position is 14 days out of date.

Length 217 m; draft 10.5 m.

Type: Cargo ship. MMSI: 306129000.

Date/timePositionNaut miles runAvg speedWind from/ knotsBaromVisibWave heightAir tempDewpointWater temp
2019-Jun-01 22:14N 21°31' E 113°45'0 0.0
2019-Jun-01 21:50N 21°31' E 113°45'0 0.0
2019-Jun-01 21:02N 21°31' E 113°45'0 0.1
2019-Jun-01 20:56N 21°31' E 113°45'  
2019-May-27 04:10N 01°15' E 104°08'212.4
2019-May-27 04:00N 01°15' E 104°06'612.8
2019-May-27 03:30N 01°14' E 103°60'612.6
2019-May-27 03:00N 01°12' E 103°54'713.2
2019-May-27 02:30N 01°10' E 103°48'2 3.8
2019-May-27 02:00N 01°11' E 103°46'0 0.2
2019-May-27 01:29N 01°11' E 103°46'0 0.0
2019-May-27 00:59N 01°11' E 103°46'0 0.0
2019-May-27 00:23N 01°11' E 103°46'0 0.0
2019-May-26 23:56N 01°11' E 103°46'0 0.0
2019-May-26 23:29N 01°11' E 103°46'0 0.0
2019-May-26 22:47N 01°11' E 103°46'0 0.1
2019-May-26 22:29N 01°11' E 103°46'0 0.3
2019-May-26 21:59N 01°11' E 103°46'0 0.1
2019-May-26 21:26N 01°11' E 103°46'0 0.0
2019-May-26 20:59N 01°11' E 103°46'0 0.2
2019-May-26 20:23N 01°11' E 103°46'0 0.1
2019-May-26 19:59N 01°11' E 103°46'0 0.0
2019-May-26 19:29N 01°11' E 103°46'0 0.0
2019-May-26 18:59N 01°11' E 103°46'0 0.0
2019-May-26 18:29N 01°11' E 103°46'0 0.0
2019-May-26 17:59N 01°11' E 103°46'0 0.0
2019-May-26 17:29N 01°11' E 103°46'0 0.0
2019-May-26 16:59N 01°11' E 103°46'0 0.0
2019-May-26 16:29N 01°11' E 103°46'0 0.0
2019-May-26 15:59N 01°11' E 103°46'0 0.0
2019-May-26 15:29N 01°11' E 103°46'0 0.0
2019-May-26 14:56N 01°11' E 103°46'0 0.0
2019-May-26 14:29N 01°11' E 103°46'0 0.0
2019-May-26 13:59N 01°11' E 103°46'0 0.0
2019-May-26 13:29N 01°11' E 103°46'0 0.0
2019-May-26 12:59N 01°11' E 103°46'0 0.0
2019-May-26 12:29N 01°11' E 103°46'0 0.0
2019-May-26 11:59N 01°11' E 103°46'0 0.0
2019-May-26 11:29N 01°11' E 103°46'0 0.0
2019-May-26 10:59N 01°11' E 103°46'0 0.1
2019-May-26 10:29N 01°11' E 103°46'0 0.0
2019-May-26 09:59N 01°11' E 103°46'0 0.0
2019-May-26 09:29N 01°11' E 103°46'0 0.0
2019-May-26 08:59N 01°11' E 103°46'0 0.0
2019-May-26 08:29N 01°11' E 103°46'0 0.0
2019-May-26 07:59N 01°11' E 103°46'0 0.1
2019-May-26 07:29N 01°11' E 103°46'0 0.2
2019-May-26 06:59N 01°11' E 103°46'0 0.2
2019-May-26 06:29N 01°11' E 103°46'0 0.1
2019-May-26 05:59N 01°11' E 103°46'0 0.2
2019-May-26 05:29N 01°11' E 103°46'0 0.1
2019-May-26 04:56N 01°11' E 103°46'0 0.0
2019-May-26 04:29N 01°11' E 103°46'0 0.0
2019-May-26 03:59N 01°11' E 103°46'0 0.0
2019-May-26 03:29N 01°11' E 103°46'0 0.2
2019-May-26 02:59N 01°11' E 103°46'1 1.1
2019-May-26 02:00N 01°10' E 103°46'4 8.1
2019-May-26 01:30N 01°10' E 103°42'5 9.4
2019-May-26 00:59N 01°12' E 103°38'2 4.7
2019-May-26 00:30N 01°13' E 103°36'5 7.3
2019-May-25 23:51N 01°12' E 103°31'3 9.2
2019-May-25 23:29N 01°11' E 103°28'810.1
2019-May-25 22:42N 01°15' E 103°21'  

Dump ship's entire track history